Time;durP1;ratioP1;P1;durP2;ratioP2;P2;SDS_P1;SDS_P2;PMS_P1;PMS_P2;Temp;Humidity;BMP_temperature;BMP_pressure;BME280_temperature;BME280_humidity;BME280_pressure;Samples;Min_cycle;Max_cycle;Signal;HPM_P1;HPM_P2
2021/06/19 00:00:58;;;;;;;2.65;2.00;;;;;;;23.15;54.77;99356.97;4989352;28;20557;-67
2021/06/19 00:03:24;;;;;;;5.18;2.05;;;;;;;23.12;54.86;99363.50;4989237;28;20110;-67
2021/06/19 00:05:49;;;;;;;7.97;2.25;;;;;;;23.10;55.04;99365.53;4989855;28;20038;-67
2021/06/19 00:08:14;;;;;;;4.85;2.08;;;;;;;23.08;54.95;99362.16;4989876;28;20414;-67
2021/06/19 00:10:41;;;;;;;2.85;1.95;;;;;;;23.04;55.03;99370.75;4989964;28;20077;-66
2021/06/19 00:13:08;;;;;;;3.25;2.55;;;;;;;23.04;55.04;99371.59;4990585;28;20030;-67
2021/06/19 00:15:34;;;;;;;9.05;2.20;;;;;;;23.00;55.20;99374.78;4989869;28;20037;-67
2021/06/19 00:18:00;;;;;;;4.15;2.03;;;;;;;22.96;55.19;99384.13;4989252;28;20046;-66
2021/06/19 00:20:27;;;;;;;2.22;1.80;;;;;;;22.92;55.27;99384.47;4989422;28;20041;-66
2021/06/19 00:22:54;;;;;;;2.78;1.73;;;;;;;22.89;55.37;99381.28;4990706;28;20046;-66
2021/06/19 00:25:21;;;;;;;7.13;2.58;;;;;;;22.87;55.36;99381.44;4990725;28;20031;-66
2021/06/19 00:27:47;;;;;;;8.60;2.45;;;;;;;22.81;55.69;99370.50;4991058;28;20046;-68
2021/06/19 00:30:15;;;;;;;6.72;2.50;;;;;;;22.75;55.72;99385.44;4991414;28;20026;-67
2021/06/19 00:32:42;;;;;;;4.93;2.00;;;;;;;22.72;55.50;99380.41;4980538;28;20045;-67
2021/06/19 00:35:08;;;;;;;3.70;2.20;;;;;;;22.66;56.14;99378.34;4989904;28;20049;-67
2021/06/19 00:37:35;;;;;;;2.55;1.70;;;;;;;22.64;56.07;99380.34;4990210;28;20498;-67
2021/06/19 00:40:01;;;;;;;4.47;1.80;;;;;;;22.62;56.12;99382.34;4990158;28;20042;-66
2021/06/19 00:42:27;;;;;;;3.17;2.10;;;;;;;22.61;56.23;99375.31;4990322;28;20526;-66
2021/06/19 00:44:56;;;;;;;3.58;1.80;;;;;;;22.57;56.31;99365.88;4990230;28;20039;-67
2021/06/19 00:47:21;;;;;;;3.67;2.10;;;;;;;22.52;56.54;99366.38;4988669;28;20176;-68
2021/06/19 00:49:47;;;;;;;4.00;1.92;;;;;;;22.50;56.48;99371.09;4988949;28;20110;-67
2021/06/19 00:52:12;;;;;;;4.15;1.58;;;;;;;22.43;56.66;99370.88;4989530;28;20121;-68
2021/06/19 00:54:38;;;;;;;4.18;1.85;;;;;;;22.40;56.69;99368.53;4989091;28;20026;-67
2021/06/19 00:57:07;;;;;;;4.15;1.70;;;;;;;22.36;57.03;99366.31;4988291;28;20100;-66
2021/06/19 00:59:32;;;;;;;2.33;1.63;;;;;;;22.33;57.20;99363.97;4988488;28;20556;-66
2021/06/19 01:01:57;;;;;;;6.10;2.17;;;;;;;22.28;57.20;99362.59;4963785;28;20038;-66
2021/06/19 01:04:23;;;;;;;4.45;2.00;;;;;;;22.28;57.19;99367.13;4988660;28;20030;-67
2021/06/19 01:06:48;;;;;;;5.22;1.70;;;;;;;22.26;57.19;99372.66;4988332;28;20061;-66
2021/06/19 01:09:13;;;;;;;3.80;2.03;;;;;;;22.24;57.21;99374.66;4988514;28;20031;-67
2021/06/19 01:11:39;;;;;;;5.55;2.25;;;;;;;22.22;57.31;99370.44;4991621;28;20077;-67
2021/06/19 01:14:06;;;;;;;5.03;2.20;;;;;;;22.18;57.62;99371.75;4991701;28;20165;-67
2021/06/19 01:16:34;;;;;;;4.45;2.08;;;;;;;22.13;57.80;99384.81;4994676;28;20042;-67
2021/06/19 01:19:00;;;;;;;3.58;1.67;;;;;;;22.07;57.67;99379.06;4997746;28;20514;-68
2021/06/19 01:21:29;;;;;;;2.15;1.63;;;;;;;21.99;58.09;99376.34;4995523;28;20117;-68
2021/06/19 01:23:55;;;;;;;4.55;1.80;;;;;;;21.99;58.23;99380.88;4996477;28;20046;-67
2021/06/19 01:26:24;;;;;;;9.88;2.08;;;;;;;21.97;58.29;99374.81;4995101;28;20204;-67
2021/06/19 01:28:51;;;;;;;2.10;1.65;;;;;;;21.91;58.32;99370.94;4994762;28;20042;-67
2021/06/19 01:31:17;;;;;;;4.13;2.90;;;;;;;21.87;58.73;99367.69;4994809;28;20034;-68
2021/06/19 01:33:45;;;;;;;5.18;1.80;;;;;;;21.84;58.91;99375.25;4994848;28;20030;-67
2021/06/19 01:36:11;;;;;;;4.07;2.25;;;;;;;21.81;58.94;99378.25;4994992;28;20057;-68
2021/06/19 01:38:42;;;;;;;2.90;1.70;;;;;;;21.80;59.11;99379.22;4994781;28;20057;-66
2021/06/19 01:41:22;;;;;;;2.47;1.75;;;;;;;21.78;59.08;99374.03;4995136;28;20117;-68
2021/06/19 01:43:55;;;;;;;4.10;1.95;;;;;;;21.77;58.84;99369.66;4980472;28;20502;-66
2021/06/19 01:46:21;;;;;;;2.85;1.73;;;;;;;21.76;59.06;99370.66;4993371;28;20508;-67
2021/06/19 01:48:46;;;;;;;1.92;1.52;;;;;;;21.74;59.23;99378.03;4994827;28;20038;-67
2021/06/19 01:51:12;;;;;;;3.25;2.15;;;;;;;21.68;59.40;99383.16;4994845;28;20458;-67
2021/06/19 01:53:42;;;;;;;6.35;2.10;;;;;;;21.64;59.49;99375.44;4995092;28;20042;-68
2021/06/19 01:56:08;;;;;;;5.35;1.95;;;;;;;21.61;59.64;99375.75;4982688;28;20038;-67
2021/06/19 01:58:34;;;;;;;2.97;1.60;;;;;;;21.59;59.71;99383.13;4994084;28;20454;-67
2021/06/19 02:01:00;;;;;;;2.53;1.70;;;;;;;21.56;59.71;99380.75;4994500;28;20062;-67
2021/06/19 02:03:25;;;;;;;2.75;1.65;;;;;;;21.53;60.00;99386.41;4994473;28;20030;-67
2021/06/19 02:05:51;;;;;;;2.63;1.65;;;;;;;21.52;60.04;99376.69;4993305;28;20057;-67
2021/06/19 02:08:19;;;;;;;3.53;1.45;;;;;;;21.54;60.03;99390.78;4994321;28;20034;-67
2021/06/19 02:10:44;;;;;;;4.43;1.70;;;;;;;21.52;60.22;99389.28;4994637;28;20058;-67
2021/06/19 02:13:11;;;;;;;4.72;1.70;;;;;;;21.50;60.34;99386.72;4994733;28;20069;-66
2021/06/19 02:15:38;;;;;;;3.15;1.88;;;;;;;21.48;60.37;99393.25;4995309;28;20622;-67
2021/06/19 02:18:04;;;;;;;2.50;1.83;;;;;;;21.41;60.61;99391.19;4992809;28;20056;-66
2021/06/19 02:20:30;;;;;;;2.75;1.58;;;;;;;21.41;60.64;99396.56;4994621;28;20034;-67
2021/06/19 02:22:56;;;;;;;3.65;1.92;;;;;;;21.34;60.91;99394.59;4994725;28;20042;-66
2021/06/19 02:25:25;;;;;;;2.45;1.80;;;;;;;21.31;60.82;99392.22;4993777;28;20540;-68
2021/06/19 02:28:02;;;;;;;3.05;1.73;;;;;;;21.28;61.18;99390.69;4991842;28;20034;-67
2021/06/19 02:30:37;;;;;;;4.25;1.70;;;;;;;21.29;61.28;99394.22;4992293;28;20037;-66
2021/06/19 02:33:03;;;;;;;2.87;1.63;;;;;;;21.24;61.44;99402.75;4993031;28;20494;-67
2021/06/19 02:35:31;;;;;;;3.38;1.83;;;;;;;21.19;61.64;99392.47;4991377;28;20062;-68
2021/06/19 02:37:57;;;;;;;2.80;2.13;;;;;;;21.13;61.37;99394.91;4990887;28;20490;-66
2021/06/19 02:40:23;;;;;;;2.97;1.85;;;;;;;21.11;61.84;99388.88;4990053;28;20031;-67
2021/06/19 02:42:49;;;;;;;6.35;1.77;;;;;;;21.08;62.08;99398.06;4991589;28;20068;-67
2021/06/19 02:45:15;;;;;;;2.10;1.65;;;;;;;21.06;61.97;99400.03;4991151;28;20058;-67
2021/06/19 02:47:43;;;;;;;3.17;1.63;;;;;;;21.06;62.28;99405.41;4990632;28;20041;-67
2021/06/19 02:50:10;;;;;;;2.92;1.75;;;;;;;21.04;62.21;99410.06;4991628;28;20103;-68
2021/06/19 02:52:40;;;;;;;3.60;1.88;;;;;;;21.01;62.24;99410.38;4991047;28;20091;-67
2021/06/19 02:55:07;;;;;;;4.00;1.73;;;;;;;20.99;62.25;99412.38;4990940;28;20026;-67
2021/06/19 02:57:33;;;;;;;2.22;1.90;;;;;;;20.95;62.52;99419.03;4990403;28;20378;-67
2021/06/19 02:59:58;;;;;;;2.65;1.98;;;;;;;20.94;62.56;99420.00;4990835;28;20089;-67
2021/06/19 03:02:23;;;;;;;3.78;2.00;;;;;;;20.90;62.65;99421.31;4990494;28;20093;-67
2021/06/19 03:04:49;;;;;;;3.28;2.08;;;;;;;20.85;62.87;99415.59;4990891;28;20132;-67
2021/06/19 03:07:14;;;;;;;3.78;1.88;;;;;;;20.78;63.25;99418.00;4990654;28;20401;-67
2021/06/19 03:09:39;;;;;;;2.78;2.25;;;;;;;20.76;63.08;99425.34;4993787;28;20378;-67
2021/06/19 03:12:05;;;;;;;3.42;1.83;;;;;;;20.72;62.97;99430.19;4990747;28;20482;-68
2021/06/19 03:14:31;;;;;;;3.42;2.20;;;;;;;20.67;63.16;99420.88;4990566;28;20057;-66
2021/06/19 03:16:57;;;;;;;2.45;1.98;;;;;;;20.64;63.59;99427.38;4990395;28;20642;-67
2021/06/19 03:19:22;;;;;;;2.30;1.70;;;;;;;20.57;63.92;99440.50;4990244;28;20034;-66
2021/06/19 03:21:47;;;;;;;8.57;2.28;;;;;;;20.54;64.04;99445.31;4990638;28;20410;-67
2021/06/19 03:24:13;;;;;;;3.28;1.98;;;;;;;20.50;64.30;99446.56;4992881;28;20031;-67
2021/06/19 03:26:38;;;;;;;2.92;1.92;;;;;;;20.48;64.18;99452.09;4990529;28;20026;-67
2021/06/19 03:29:05;;;;;;;3.53;1.83;;;;;;;20.44;64.35;99452.53;4989808;28;20121;-68
2021/06/19 03:31:33;;;;;;;3.50;1.60;;;;;;;20.42;64.46;99455.34;4990400;28;20038;-66
2021/06/19 03:33:59;;;;;;;3.25;2.00;;;;;;;20.42;64.57;99462.53;4989890;28;20042;-66
2021/06/19 03:36:24;;;;;;;2.78;1.75;;;;;;;20.44;64.52;99465.94;4989421;28;20041;-67
2021/06/19 03:38:50;;;;;;;2.50;1.80;;;;;;;20.45;64.38;99464.91;4989775;28;20667;-68
2021/06/19 03:41:15;;;;;;;2.55;1.88;;;;;;;20.45;64.57;99463.09;4990294;28;20402;-67
2021/06/19 03:43:40;;;;;;;2.65;1.70;;;;;;;20.46;64.10;99455.91;4988941;28;20042;-67
2021/06/19 03:46:06;;;;;;;2.25;1.90;;;;;;;20.46;64.47;99450.56;4990471;28;20030;-67
2021/06/19 03:48:31;;;;;;;4.07;2.15;;;;;;;20.45;64.48;99449.69;4989122;28;20034;-67
2021/06/19 03:50:56;;;;;;;2.15;1.60;;;;;;;20.42;64.65;99444.63;4990021;28;20096;-66
2021/06/19 03:53:22;;;;;;;3.55;1.95;;;;;;;20.38;64.80;99436.06;4989396;28;20029;-65
2021/06/19 03:55:47;;;;;;;2.53;2.00;;;;;;;20.37;64.82;99442.41;4989875;28;20482;-66
2021/06/19 03:58:13;;;;;;;6.18;1.77;;;;;;;20.36;64.87;99435.38;4989406;28;20481;-66
2021/06/19 04:00:38;;;;;;;2.28;1.70;;;;;;;20.37;64.89;99439.72;4990458;28;20042;-66
2021/06/19 04:03:04;;;;;;;2.97;1.60;;;;;;;20.35;64.96;99441.72;4989556;28;20061;-67
2021/06/19 04:05:30;;;;;;;3.88;1.52;;;;;;;20.35;64.75;99436.38;4989332;28;20445;-67
2021/06/19 04:07:55;;;;;;;2.80;1.98;;;;;;;20.34;64.50;99440.03;4989273;28;20034;-67
2021/06/19 04:10:22;;;;;;;2.42;1.65;;;;;;;20.34;64.59;99434.66;4989634;28;20126;-66
2021/06/19 04:12:48;;;;;;;3.30;2.03;;;;;;;20.36;64.73;99446.09;4989544;28;20480;-67
2021/06/19 04:15:14;;;;;;;3.78;2.35;;;;;;;20.38;64.62;99448.63;4989502;28;20030;-67
2021/06/19 04:17:40;;;;;;;2.78;1.90;;;;;;;20.39;64.47;99447.63;4989565;28;20517;-67
2021/06/19 04:20:08;;;;;;;2.85;1.80;;;;;;;20.40;64.38;99451.13;4989428;28;20109;-67
2021/06/19 04:22:34;;;;;;;4.22;1.98;;;;;;;20.43;64.06;99457.06;4989133;28;20085;-67
2021/06/19 04:24:59;;;;;;;2.35;1.80;;;;;;;20.45;64.36;99467.59;4989295;28;20034;-66
2021/06/19 04:27:25;;;;;;;2.55;1.60;;;;;;;20.47;64.22;99463.78;4988873;28;20445;-67
2021/06/19 04:29:51;;;;;;;1.95;1.60;;;;;;;20.49;64.17;99466.31;4988597;28;20081;-67
2021/06/19 04:32:18;;;;;;;3.42;1.90;;;;;;;20.50;63.91;99476.91;4989267;28;20085;-67
2021/06/19 04:34:44;;;;;;;3.22;1.85;;;;;;;20.53;63.94;99470.41;4989367;28;20115;-67
2021/06/19 04:37:14;;;;;;;2.25;1.65;;;;;;;20.58;63.69;99470.84;4989173;28;20121;-67
2021/06/19 04:40:07;;;;;;;3.10;1.85;;;;;;;20.62;63.65;99485.59;4989245;28;20158;-67
2021/06/19 04:42:35;;;;;;;3.47;1.98;;;;;;;20.65;63.45;99479.97;4980484;28;20038;-66
2021/06/19 04:45:02;;;;;;;3.25;1.77;;;;;;;20.69;63.20;99481.34;4989110;28;20045;-67
2021/06/19 04:47:28;;;;;;;1.95;1.50;;;;;;;20.74;63.26;99475.56;4987141;28;20448;-67
2021/06/19 04:49:54;;;;;;;2.83;1.70;;;;;;;20.73;62.90;99481.91;4988383;28;20033;-67
2021/06/19 04:52:23;;;;;;;5.03;1.88;;;;;;;20.78;62.75;99490.34;4989190;28;20117;-67
2021/06/19 04:54:50;;;;;;;3.30;1.73;;;;;;;20.84;62.79;99499.63;4988941;28;20039;-67
2021/06/19 04:57:15;;;;;;;1.65;1.50;;;;;;;20.92;62.47;99505.06;4988495;28;20549;-67
2021/06/19 04:59:41;;;;;;;2.15;1.40;;;;;;;20.97;62.60;99502.81;4988965;28;20034;-67
2021/06/19 05:02:06;;;;;;;2.75;2.10;;;;;;;21.07;61.90;99503.59;4989380;28;20042;-68
2021/06/19 05:04:31;;;;;;;1.75;1.48;;;;;;;21.14;61.59;99490.41;4991090;28;20391;-67
2021/06/19 05:06:57;;;;;;;1.95;1.60;;;;;;;21.30;61.04;99497.81;4988726;28;20375;-68
2021/06/19 05:09:22;;;;;;;1.88;1.40;;;;;;;21.46;60.63;99497.16;4988614;28;20027;-67
2021/06/19 05:11:48;;;;;;;3.88;2.40;;;;;;;21.63;59.94;99494.50;4988643;28;20050;-67
2021/06/19 05:14:13;;;;;;;4.63;1.90;;;;;;;21.70;59.58;99493.88;4988805;28;20117;-68
2021/06/19 05:16:39;;;;;;;1.75;1.50;;;;;;;21.79;59.08;99506.38;4988840;28;20038;-68
2021/06/19 05:19:04;;;;;;;1.60;1.40;;;;;;;21.89;58.71;99501.75;4988407;28;20518;-67
2021/06/19 05:21:30;;;;;;;5.15;1.95;;;;;;;21.91;58.66;99504.28;4989672;28;20050;-66
2021/06/19 05:23:55;;;;;;;3.08;1.98;;;;;;;21.91;58.53;99502.44;4991176;28;20045;-67
2021/06/19 05:26:21;;;;;;;1.70;1.48;;;;;;;21.99;58.72;99507.03;4988344;28;20028;-67
2021/06/19 05:28:46;;;;;;;2.03;1.50;;;;;;;22.07;58.35;99507.91;4988409;28;20393;-67
2021/06/19 05:31:12;;;;;;;4.03;1.88;;;;;;;22.11;58.28;99508.47;4988433;28;20062;-66
2021/06/19 05:33:37;;;;;;;2.03;1.52;;;;;;;22.16;57.99;99519.59;4988758;28;20026;-67
2021/06/19 05:36:03;;;;;;;2.13;1.77;;;;;;;22.36;57.54;99506.81;4988198;28;20041;-66
2021/06/19 05:38:28;;;;;;;3.95;1.70;;;;;;;22.53;57.14;99510.47;4986412;28;20034;-66
2021/06/19 05:40:54;;;;;;;2.40;1.67;;;;;;;22.75;56.82;99510.91;4988391;28;20042;-66
2021/06/19 05:43:19;;;;;;;2.45;2.00;;;;;;;23.10;55.50;99508.03;4988304;28;20555;-67
2021/06/19 05:45:44;;;;;;;1.90;1.67;;;;;;;23.14;55.40;99506.72;4988292;28;20038;-68
2021/06/19 05:48:10;;;;;;;3.00;1.90;;;;;;;23.23;54.92;99518.34;4988421;28;20117;-67
2021/06/19 05:50:35;;;;;;;2.50;1.83;;;;;;;23.31;54.49;99526.44;4988449;28;20109;-68
2021/06/19 05:53:01;;;;;;;4.30;1.58;;;;;;;23.43;54.24;99528.81;4988538;28;20038;-67
2021/06/19 05:55:27;;;;;;;5.18;2.45;;;;;;;23.55;53.76;99533.75;4987121;28;20109;-67
2021/06/19 05:57:52;;;;;;;3.20;1.80;;;;;;;23.89;53.14;99534.63;4987794;28;20121;-67
2021/06/19 06:00:18;;;;;;;5.30;1.85;;;;;;;24.06;52.12;99527.41;4989665;28;20034;-67
2021/06/19 06:02:43;;;;;;;2.00;1.40;;;;;;;24.15;51.87;99538.00;4992107;28;20042;-68
2021/06/19 06:05:12;;;;;;;1.95;1.73;;;;;;;24.09;52.41;99533.28;4992152;28;20037;-68
2021/06/19 06:07:38;;;;;;;3.60;1.40;;;;;;;24.21;52.18;99537.31;4991665;28;20173;-65
2021/06/19 06:10:05;;;;;;;3.00;1.95;;;;;;;24.39;52.03;99533.59;4991775;28;20526;-67
2021/06/19 06:12:31;;;;;;;1.92;1.65;;;;;;;24.43;51.69;99543.03;4991549;28;20043;-67
2021/06/19 06:14:56;;;;;;;3.08;2.25;;;;;;;24.35;51.55;99551.97;4991969;28;20042;-68
2021/06/19 06:17:22;;;;;;;3.10;1.60;;;;;;;24.30;51.06;99559.72;4991533;28;20038;-67
2021/06/19 06:19:47;;;;;;;3.05;1.70;;;;;;;24.35;51.28;99553.84;4991527;28;20034;-67
2021/06/19 06:22:12;;;;;;;3.15;1.65;;;;;;;24.56;51.00;99551.47;4990315;28;20098;-68
2021/06/19 06:24:38;;;;;;;4.07;2.28;;;;;;;24.60;50.95;99550.09;4991878;28;20050;-67
2021/06/19 06:27:04;;;;;;;2.65;2.42;;;;;;;24.55;50.98;99555.16;4991227;28;20030;-67
2021/06/19 06:29:30;;;;;;;3.83;2.08;;;;;;;24.63;50.72;99562.41;4990797;28;20031;-66
2021/06/19 06:31:56;;;;;;;5.93;2.08;;;;;;;24.62;50.68;99552.63;4990090;28;20034;-66
2021/06/19 06:34:23;;;;;;;2.45;1.67;;;;;;;24.66;50.57;99547.72;4991329;28;20040;-67
2021/06/19 06:36:49;;;;;;;8.52;2.42;;;;;;;24.64;50.71;99542.53;4990695;28;20516;-67
2021/06/19 06:39:15;;;;;;;2.72;1.60;;;;;;;24.92;50.42;99551.03;4990905;28;20045;-67
2021/06/19 06:41:41;;;;;;;3.22;2.30;;;;;;;25.09;49.66;99549.13;4991454;28;20034;-67
2021/06/19 06:44:07;;;;;;;5.32;3.70;;;;;;;25.15;49.53;99545.69;4979248;28;20117;-68
2021/06/19 06:46:32;;;;;;;5.80;3.65;;;;;;;25.22;49.30;99541.31;4990419;28;20469;-67
2021/06/19 06:48:58;;;;;;;6.32;3.30;;;;;;;25.44;48.65;99539.69;4990942;28;20065;-67
2021/06/19 06:51:23;;;;;;;5.50;2.30;;;;;;;25.68;48.44;99537.84;4990654;28;20026;-68
2021/06/19 06:53:48;;;;;;;3.08;2.05;;;;;;;25.61;47.47;99534.19;4990868;28;20510;-68
2021/06/19 06:56:14;;;;;;;6.80;2.30;;;;;;;25.25;48.61;99535.59;4990781;28;20402;-67
2021/06/19 06:58:39;;;;;;;3.15;2.05;;;;;;;25.22;48.37;99549.41;4991429;28;20488;-66
2021/06/19 07:01:07;;;;;;;5.32;2.65;;;;;;;25.23;48.70;99544.88;4991206;28;20058;-68
2021/06/19 07:03:32;;;;;;;4.32;2.20;;;;;;;25.22;48.07;99540.47;4991276;28;20645;-67
2021/06/19 07:05:58;;;;;;;3.42;1.88;;;;;;;25.20;48.18;99548.78;4990275;28;20069;-67
2021/06/19 07:08:23;;;;;;;3.90;2.20;;;;;;;25.17;48.02;99537.47;4992360;28;20121;-68
2021/06/19 07:10:48;;;;;;;2.88;2.00;;;;;;;25.24;48.14;99533.06;4989998;28;20041;-69
2021/06/19 07:13:14;;;;;;;8.60;2.03;;;;;;;25.44;47.85;99533.44;4989439;28;20026;-67
2021/06/19 07:15:42;;;;;;;2.42;1.60;;;;;;;25.44;47.30;99533.44;4990898;28;20039;-68
2021/06/19 07:18:07;;;;;;;2.17;1.50;;;;;;;25.53;47.88;99516.19;4979092;28;20046;-68
2021/06/19 07:20:32;;;;;;;2.50;2.05;;;;;;;25.61;47.63;99521.53;4973774;28;20038;-68
2021/06/19 07:22:58;;;;;;;3.22;1.90;;;;;;;25.81;47.12;99518.34;4988807;28;20409;-68
2021/06/19 07:25:23;;;;;;;2.78;2.13;;;;;;;25.94;46.29;99525.88;4990121;28;20034;-67
2021/06/19 07:27:53;;;;;;;3.75;1.90;;;;;;;26.24;45.90;99521.41;4989517;28;20130;-68
2021/06/19 07:30:20;;;;;;;2.90;1.90;;;;;;;26.63;44.71;99518.50;4989497;28;20494;-67
2021/06/19 07:32:45;;;;;;;2.38;1.80;;;;;;;26.76;44.37;99515.97;4989619;28;20057;-68
2021/06/19 07:35:11;;;;;;;4.00;2.25;;;;;;;27.15;43.48;99514.00;4990210;28;20065;-68
2021/06/19 07:37:36;;;;;;;3.58;2.63;;;;;;;27.43;43.21;99511.41;4988182;28;20371;-69
2021/06/19 07:40:03;;;;;;;3.80;2.28;;;;;;;27.76;42.09;99514.47;4990200;28;20132;-68
2021/06/19 07:42:30;;;;;;;3.75;1.95;;;;;;;28.23;41.30;99514.88;4990256;28;20375;-68
2021/06/19 07:44:56;;;;;;;2.10;1.80;;;;;;;28.42;40.68;99519.63;4989979;28;20042;-68
2021/06/19 07:47:21;;;;;;;3.05;2.08;;;;;;;28.39;40.25;99517.31;4989751;28;20039;-67
2021/06/19 07:49:46;;;;;;;6.47;2.00;;;;;;;28.52;40.19;99518.47;4989826;28;20030;-67
2021/06/19 07:52:12;;;;;;;5.95;2.15;;;;;;;28.67;39.77;99509.19;4989566;28;20498;-67
2021/06/19 07:54:37;;;;;;;6.45;2.20;;;;;;;28.92;39.00;99513.28;4988525;28;20045;-67
2021/06/19 07:57:08;;;;;;;2.95;2.00;;;;;;;28.90;39.40;99517.03;4989204;28;20161;-68
2021/06/19 07:59:35;;;;;;;2.08;1.70;;;;;;;28.99;39.26;99508.72;4989624;28;20089;-68
2021/06/19 08:02:01;;;;;;;3.05;2.00;;;;;;;29.00;39.45;99516.66;4989469;28;20534;-68
2021/06/19 08:04:26;;;;;;;4.50;1.80;;;;;;;28.98;39.38;99517.91;4989333;28;20122;-67
2021/06/19 08:06:52;;;;;;;2.05;1.70;;;;;;;28.97;39.27;99521.66;4989207;28;20122;-68
2021/06/19 08:09:17;;;;;;;3.03;1.83;;;;;;;28.95;39.46;99519.16;4989546;28;20482;-67
2021/06/19 08:11:42;;;;;;;2.65;1.70;;;;;;;28.86;39.35;99513.03;4989654;28;20034;-68
2021/06/19 08:14:08;;;;;;;3.58;1.45;;;;;;;28.58;39.63;99523.94;4989773;28;20030;-68
2021/06/19 08:16:33;;;;;;;3.67;2.15;;;;;;;28.53;39.96;99520.16;4988866;28;20082;-67
2021/06/19 08:18:59;;;;;;;5.82;2.35;;;;;;;28.80;38.94;99516.56;4989026;28;20061;-67
2021/06/19 08:21:25;;;;;;;3.90;2.00;;;;;;;28.98;38.67;99520.63;4989483;28;20034;-67
2021/06/19 08:23:50;;;;;;;5.97;2.30;;;;;;;29.06;38.69;99513.16;4989174;28;20438;-68
2021/06/19 08:26:15;;;;;;;2.65;1.90;;;;;;;29.03;39.24;99510.00;4989406;28;20537;-67
2021/06/19 08:28:41;;;;;;;3.05;2.40;;;;;;;29.11;38.68;99507.13;4989236;28;20406;-67
2021/06/19 08:31:06;;;;;;;2.70;1.95;;;;;;;29.22;38.98;99512.00;4989127;28;20110;-67
2021/06/19 08:33:32;;;;;;;4.20;2.13;;;;;;;29.20;39.35;99497.78;4987302;28;20042;-67
2021/06/19 08:35:57;;;;;;;3.22;2.30;;;;;;;29.14;39.09;99504.00;4989253;28;20038;-68
2021/06/19 08:38:23;;;;;;;3.75;1.83;;;;;;;29.05;39.21;99495.19;4987170;28;20034;-68
2021/06/19 08:40:48;;;;;;;5.82;2.30;;;;;;;29.03;39.24;99493.72;4989450;28;20116;-68
2021/06/19 08:43:14;;;;;;;2.38;1.83;;;;;;;28.78;39.74;99491.50;4988746;28;20030;-68
2021/06/19 08:45:40;;;;;;;3.22;2.30;;;;;;;28.79;39.68;99493.16;4989487;28;20053;-68
2021/06/19 08:48:06;;;;;;;4.45;2.28;;;;;;;28.86;39.06;99490.50;4988781;28;20034;-67
2021/06/19 08:50:32;;;;;;;3.63;1.73;;;;;;;29.22;38.79;99484.00;4988800;28;20109;-67
2021/06/19 08:53:00;;;;;;;3.35;2.22;;;;;;;29.47;38.46;99478.84;4986226;28;20093;-68
2021/06/19 08:55:27;;;;;;;4.00;1.80;;;;;;;29.69;38.20;99466.78;4989009;28;20394;-67
2021/06/19 08:57:52;;;;;;;3.17;2.00;;;;;;;29.56;37.94;99465.88;4988457;28;20125;-67
2021/06/19 09:00:18;;;;;;;5.45;1.90;;;;;;;29.78;38.07;99459.25;5003511;28;20397;-73
2021/06/19 09:02:46;;;;;;;3.78;2.22;;;;;;;30.21;37.10;99460.72;5004064;28;20048;-76
2021/06/19 09:05:15;;;;;;;3.58;1.80;;;;;;;30.45;35.98;99451.91;5009010;28;20038;-74
2021/06/19 09:07:47;;;;;;;3.47;2.00;;;;;;;31.07;34.39;99449.59;4999241;28;20069;-74
2021/06/19 09:10:21;;;;;;;2.08;1.60;;;;;;;31.51;34.07;99445.19;5002649;28;20034;-72
2021/06/19 09:13:02;;;;;;;2.08;1.60;;;;;;;32.13;32.77;99439.03;4992692;28;20049;-72
2021/06/19 09:15:29;;;;;;;7.57;2.17;;;;;;;32.70;32.21;99434.25;5012089;28;20041;-74
2021/06/19 09:18:13;;;;;;;2.17;1.75;;;;;;;33.12;31.00;99437.09;5013774;28;20445;-76
2021/06/19 09:21:00;;;;;;;3.40;1.67;;;;;;;33.51;30.63;99434.84;5001244;28;20501;-74
2021/06/19 09:23:35;;;;;;;3.58;2.00;;;;;;;33.75;30.11;99441.22;4989915;28;20539;-73
2021/06/19 09:26:15;;;;;;;4.32;2.10;;;;;;;34.12;29.57;99446.53;4987284;28;20043;-74
2021/06/19 09:28:59;;;;;;;2.80;2.10;;;;;;;34.47;29.01;99445.66;4995036;28;20100;-75
2021/06/19 09:31:36;;;;;;;3.95;2.58;;;;;;;34.72;29.16;99438.00;4992275;28;20041;-74
2021/06/19 09:34:14;;;;;;;3.47;2.70;;;;;;;35.02;28.73;99434.22;5004254;28;20053;-76
2021/06/19 09:36:42;;;;;;;3.28;2.47;;;;;;;35.45;28.45;99421.91;4992821;28;20124;-75
2021/06/19 09:39:12;;;;;;;2.78;2.33;;;;;;;35.83;27.59;99429.41;4984138;28;20097;-76
2021/06/19 09:41:40;;;;;;;2.55;2.20;;;;;;;35.65;27.79;99429.66;4985403;28;20121;-76
2021/06/19 09:44:06;;;;;;;3.80;2.83;;;;;;;35.69;27.54;99423.44;4968847;28;20402;-75
2021/06/19 09:46:31;;;;;;;13.70;3.72;;;;;;;35.47;27.69;99427.97;4986970;28;20033;-74
2021/06/19 09:49:16;;;;;;;4.18;2.63;;;;;;;35.67;27.21;99427.50;4987692;28;20114;-75
2021/06/19 09:52:01;;;;;;;4.82;2.65;;;;;;;35.52;27.51;99429.94;4988151;28;20034;-75
2021/06/19 09:54:26;;;;;;;3.83;2.22;;;;;;;35.23;28.27;99430.81;4975561;28;20039;-76
2021/06/19 09:56:59;;;;;;;2.70;2.33;;;;;;;35.58;27.63;99418.00;5007093;28;20048;-76
2021/06/19 09:59:26;;;;;;;3.28;2.33;;;;;;;35.63;27.85;99401.66;5006115;28;20042;-76
2021/06/19 10:01:52;;;;;;;5.18;2.33;;;;;;;35.46;28.10;99416.16;5007652;28;20046;-74
2021/06/19 10:04:23;;;;;;;3.72;3.22;;;;;;;35.28;27.71;99410.91;5005737;28;20034;-72
2021/06/19 10:06:51;;;;;;;3.67;2.60;;;;;;;35.34;27.98;99417.31;5017704;28;20107;-76
2021/06/19 10:09:16;;;;;;;3.20;2.42;;;;;;;35.34;27.92;99415.38;5009344;28;20117;-77
2021/06/19 10:11:44;;;;;;;3.85;2.55;;;;;;;34.80;28.47;99412.13;5027389;28;20049;-72
2021/06/19 10:14:16;;;;;;;6.82;2.50;;;;;;;34.86;28.28;99402.97;5015833;28;20044;-74
2021/06/19 10:16:43;;;;;;;4.47;1.85;;;;;;;34.85;28.74;99393.06;5015419;28;20045;-72
2021/06/19 10:19:09;;;;;;;2.75;1.90;;;;;;;34.92;28.71;99393.75;5023031;28;20089;-73
2021/06/19 10:21:35;;;;;;;2.97;2.60;;;;;;;35.05;28.50;99390.75;5007707;28;20037;-73
2021/06/19 10:24:00;;;;;;;3.70;2.63;;;;;;;34.99;29.36;99380.75;4992788;28;20053;-51
2021/06/19 10:26:26;;;;;;;5.38;2.30;;;;;;;35.16;28.83;99380.81;5001975;28;20041;-75
2021/06/19 10:28:58;;;;;;;3.13;2.17;;;;;;;35.31;28.60;99379.44;4985506;28;20035;-74
2021/06/19 10:31:25;;;;;;;3.75;2.10;;;;;;;35.25;28.17;99373.03;4988935;28;20050;-73
2021/06/19 10:33:51;;;;;;;6.72;2.08;;;;;;;34.66;28.98;99376.00;4992308;28;20034;-73
2021/06/19 10:36:16;;;;;;;3.40;2.42;;;;;;;34.25;29.98;99363.34;5006432;28;20088;-76
2021/06/19 10:38:49;;;;;;;3.00;1.98;;;;;;;34.02;30.26;99365.00;5006651;28;20480;-73
2021/06/19 10:41:15;;;;;;;5.70;2.20;;;;;;;33.82;30.93;99354.44;4985794;28;20493;-73
2021/06/19 10:43:46;;;;;;;5.22;1.90;;;;;;;33.83;31.16;99364.31;5004709;28;20037;-73
2021/06/19 10:46:32;;;;;;;6.00;2.58;;;;;;;33.37;31.77;99360.41;5005373;28;20607;-75
2021/06/19 10:48:59;;;;;;;3.40;1.98;;;;;;;32.98;32.12;99359.94;4992091;28;20433;-74
2021/06/19 10:51:29;;;;;;;3.20;2.00;;;;;;;32.89;32.32;99364.91;4997814;28;20034;-74
2021/06/19 10:54:12;;;;;;;3.30;2.10;;;;;;;33.31;31.95;99372.31;4984078;28;20661;-74
2021/06/19 10:56:52;;;;;;;3.47;2.03;;;;;;;33.74;31.62;99366.53;4992267;28;20047;-74
2021/06/19 10:59:21;;;;;;;9.25;2.47;;;;;;;33.70;30.97;99359.91;4990333;28;20129;-73
2021/06/19 11:01:47;;;;;;;2.95;1.90;;;;;;;33.28;31.32;99354.47;5005620;28;20042;-73
2021/06/19 11:04:39;;;;;;;4.43;1.95;;;;;;;33.20;31.84;99351.25;4995049;28;20034;-73
2021/06/19 11:07:19;;;;;;;4.80;2.38;;;;;;;32.75;33.12;99343.47;4981627;28;20053;-73
2021/06/19 11:09:48;;;;;;;5.07;2.10;;;;;;;32.52;33.39;99345.03;4984229;28;20038;-75
2021/06/19 11:12:32;;;;;;;4.60;1.75;;;;;;;32.15;34.30;99336.84;5002006;28;20034;-74
2021/06/19 11:15:05;;;;;;;5.53;2.30;;;;;;;31.84;34.53;99338.59;4984704;28;20034;-72
2021/06/19 11:17:33;;;;;;;4.30;2.10;;;;;;;31.86;34.84;99332.94;5025815;28;20284;-74
2021/06/19 11:20:05;;;;;;;3.60;2.10;;;;;;;31.69;34.94;99329.13;5016912;28;20505;-75
2021/06/19 11:22:39;;;;;;;4.95;2.20;;;;;;;31.72;35.04;99340.38;5000873;28;20133;-76
2021/06/19 11:25:19;;;;;;;6.93;2.38;;;;;;;31.61;34.89;99322.06;5006600;28;20406;-75
2021/06/19 11:28:01;;;;;;;3.78;2.20;;;;;;;31.60;35.41;99326.69;5005120;28;20434;-75
2021/06/19 11:30:35;;;;;;;4.20;2.08;;;;;;;31.73;35.17;99323.00;5003852;28;20124;-72
2021/06/19 11:33:24;;;;;;;;;;;;;;;31.71;35.27;99327.81;5014479;28;20459;-74
2021/06/19 11:36:04;;;;;;;4.55;2.00;;;;;;;31.80;35.08;99322.91;4996774;28;19917;-73